sensor_id;sensor_type;location;lat;lon;timestamp;pressure;altitude;pressure_sealevel;temperature
73673;BMP280;61972;19.480;-99.240;2023-06-10T00:02:17;77583.47;;;34.97
73673;BMP280;61972;19.480;-99.240;2023-06-10T00:04:43;77585.66;;;34.99
73673;BMP280;61972;19.480;-99.240;2023-06-10T00:07:09;77578.16;;;34.97
73673;BMP280;61972;19.480;-99.240;2023-06-10T00:09:36;77579.25;;;34.98
73673;BMP280;61972;19.480;-99.240;2023-06-10T00:12:07;77579.25;;;34.98
73673;BMP280;61972;19.480;-99.240;2023-06-10T00:14:37;77578.78;;;35.00
73673;BMP280;61972;19.480;-99.240;2023-06-10T00:17:04;77581.63;;;35.05
73673;BMP280;61972;19.480;-99.240;2023-06-10T00:19:30;77580.13;;;35.09
73673;BMP280;61972;19.480;-99.240;2023-06-10T00:21:57;77581.22;;;35.10
73673;BMP280;61972;19.480;-99.240;2023-06-10T00:24:23;77576.94;;;35.08
73673;BMP280;61972;19.480;-99.240;2023-06-10T00:26:50;77576.84;;;35.05
73673;BMP280;61972;19.480;-99.240;2023-06-10T00:29:16;77581.06;;;35.04
73673;BMP280;61972;19.480;-99.240;2023-06-10T00:31:44;77577.75;;;35.01
73673;BMP280;61972;19.480;-99.240;2023-06-10T00:34:11;77588.31;;;34.99
73673;BMP280;61972;19.480;-99.240;2023-06-10T00:36:37;77581.84;;;34.95
73673;BMP280;61972;19.480;-99.240;2023-06-10T00:39:03;77580.66;;;34.92
73673;BMP280;61972;19.480;-99.240;2023-06-10T00:41:30;77584.31;;;34.90
73673;BMP280;61972;19.480;-99.240;2023-06-10T00:44:00;77590.72;;;34.91
73673;BMP280;61972;19.480;-99.240;2023-06-10T00:46:26;77583.78;;;34.90
73673;BMP280;61972;19.480;-99.240;2023-06-10T00:48:52;77590.56;;;34.86
73673;BMP280;61972;19.480;-99.240;2023-06-10T00:51:22;77592.03;;;34.82
73673;BMP280;61972;19.480;-99.240;2023-06-10T00:53:49;77591.91;;;34.77
73673;BMP280;61972;19.480;-99.240;2023-06-10T00:56:15;77594.38;;;34.72
73673;BMP280;61972;19.480;-99.240;2023-06-10T00:58:41;77599.50;;;34.67
73673;BMP280;61972;19.480;-99.240;2023-06-10T01:01:08;77600.25;;;34.58
73673;BMP280;61972;19.480;-99.240;2023-06-10T01:03:37;77595.78;;;34.51
73673;BMP280;61972;19.480;-99.240;2023-06-10T01:09:14;77595.28;;;34.36
73673;BMP280;61972;19.480;-99.240;2023-06-10T01:11:48;77595.56;;;34.29
73673;BMP280;61972;19.480;-99.240;2023-06-10T01:14:17;77607.56;;;34.22
73673;BMP280;61972;19.480;-99.240;2023-06-10T01:16:44;77607.84;;;34.15
73673;BMP280;61972;19.480;-99.240;2023-06-10T01:19:11;77601.25;;;34.09
73673;BMP280;61972;19.480;-99.240;2023-06-10T01:21:39;77601.09;;;34.04
73673;BMP280;61972;19.480;-99.240;2023-06-10T01:24:06;77600.91;;;33.99
73673;BMP280;61972;19.480;-99.240;2023-06-10T01:26:34;77601.81;;;33.95
73673;BMP280;61972;19.480;-99.240;2023-06-10T01:29:14;77608.03;;;33.91
73673;BMP280;61972;19.480;-99.240;2023-06-10T01:34:21;77616.72;;;33.81
73673;BMP280;61972;19.480;-99.240;2023-06-10T01:36:49;77613.91;;;33.76
73673;BMP280;61972;19.480;-99.240;2023-06-10T01:39:17;77623.38;;;33.75
73673;BMP280;61972;19.480;-99.240;2023-06-10T01:41:47;77612.78;;;33.75
73673;BMP280;61972;19.480;-99.240;2023-06-10T01:44:18;77621.38;;;33.78
73673;BMP280;61972;19.480;-99.240;2023-06-10T01:46:45;77627.31;;;33.81
73673;BMP280;61972;19.480;-99.240;2023-06-10T01:49:11;77632.72;;;33.84
73673;BMP280;61972;19.480;-99.240;2023-06-10T01:51:37;77641.88;;;33.88
73673;BMP280;61972;19.480;-99.240;2023-06-10T01:54:03;77635.56;;;33.89
73673;BMP280;61972;19.480;-99.240;2023-06-10T01:56:29;77642.06;;;33.93
73673;BMP280;61972;19.480;-99.240;2023-06-10T01:58:58;77646.44;;;33.97
73673;BMP280;61972;19.480;-99.240;2023-06-10T02:01:29;77650.81;;;34.01
73673;BMP280;61972;19.480;-99.240;2023-06-10T02:03:56;77654.13;;;34.04
73673;BMP280;61972;19.480;-99.240;2023-06-10T02:06:22;77652.66;;;34.08
73673;BMP280;61972;19.480;-99.240;2023-06-10T02:08:48;77659.72;;;34.12
73673;BMP280;61972;19.480;-99.240;2023-06-10T02:11:14;77664.00;;;34.13
73673;BMP280;61972;19.480;-99.240;2023-06-10T02:13:41;77669.50;;;34.18
73673;BMP280;61972;19.480;-99.240;2023-06-10T02:16:07;77681.84;;;34.22
73673;BMP280;61972;19.480;-99.240;2023-06-10T02:18:33;77678.72;;;34.24
73673;BMP280;61972;19.480;-99.240;2023-06-10T02:21:02;77679.91;;;34.28
73673;BMP280;61972;19.480;-99.240;2023-06-10T02:23:28;77685.88;;;34.31
73673;BMP280;61972;19.480;-99.240;2023-06-10T02:25:54;77692.84;;;34.33
73673;BMP280;61972;19.480;-99.240;2023-06-10T02:28:20;77698.22;;;34.35
73673;BMP280;61972;19.480;-99.240;2023-06-10T02:30:46;77702.53;;;34.37
73673;BMP280;61972;19.480;-99.240;2023-06-10T02:33:12;77703.06;;;34.37
73673;BMP280;61972;19.480;-99.240;2023-06-10T02:35:39;77712.69;;;34.39
73673;BMP280;61972;19.480;-99.240;2023-06-10T02:38:05;77717.44;;;34.38
73673;BMP280;61972;19.480;-99.240;2023-06-10T02:40:31;77723.31;;;34.39
73673;BMP280;61972;19.480;-99.240;2023-06-10T02:42:58;77725.88;;;34.36
73673;BMP280;61972;19.480;-99.240;2023-06-10T02:45:24;77730.59;;;34.36
73673;BMP280;61972;19.480;-99.240;2023-06-10T02:47:51;77746.72;;;34.41
73673;BMP280;61972;19.480;-99.240;2023-06-10T02:50:17;77752.22;;;34.46
73673;BMP280;61972;19.480;-99.240;2023-06-10T02:52:43;77749.66;;;34.49
73673;BMP280;61972;19.480;-99.240;2023-06-10T02:55:09;77758.72;;;34.50
73673;BMP280;61972;19.480;-99.240;2023-06-10T02:57:35;77766.13;;;34.49
73673;BMP280;61972;19.480;-99.240;2023-06-10T03:00:02;77772.53;;;34.50
73673;BMP280;61972;19.480;-99.240;2023-06-10T03:02:30;77770.91;;;34.49
73673;BMP280;61972;19.480;-99.240;2023-06-10T03:04:57;77779.84;;;34.47
73673;BMP280;61972;19.480;-99.240;2023-06-10T03:07:23;77784.06;;;34.46
73673;BMP280;61972;19.480;-99.240;2023-06-10T03:09:50;77788.28;;;34.45
73673;BMP280;61972;19.480;-99.240;2023-06-10T03:12:16;77795.69;;;34.44
73673;BMP280;61972;19.480;-99.240;2023-06-10T03:14:42;77802.53;;;34.43
73673;BMP280;61972;19.480;-99.240;2023-06-10T03:17:08;77809.41;;;34.42
73673;BMP280;61972;19.480;-99.240;2023-06-10T03:19:35;77803.47;;;34.39
73673;BMP280;61972;19.480;-99.240;2023-06-10T03:22:14;77810.41;;;34.41
73673;BMP280;61972;19.480;-99.240;2023-06-10T03:24:40;77812.06;;;34.42
73673;BMP280;61972;19.480;-99.240;2023-06-10T03:27:10;77809.50;;;34.45
73673;BMP280;61972;19.480;-99.240;2023-06-10T03:29:37;77807.84;;;34.43
73673;BMP280;61972;19.480;-99.240;2023-06-10T03:32:03;77815.28;;;34.43
73673;BMP280;61972;19.480;-99.240;2023-06-10T03:34:30;77823.31;;;34.45
73673;BMP280;61972;19.480;-99.240;2023-06-10T03:39:21;77817.56;;;34.48
73673;BMP280;61972;19.480;-99.240;2023-06-10T03:41:54;77823.78;;;34.43
73673;BMP280;61972;19.480;-99.240;2023-06-10T03:44:20;77832.09;;;34.39
73673;BMP280;61972;19.480;-99.240;2023-06-10T03:46:46;77836.22;;;34.35
73673;BMP280;61972;19.480;-99.240;2023-06-10T03:49:13;77838.22;;;34.32
73673;BMP280;61972;19.480;-99.240;2023-06-10T03:51:40;77832.28;;;34.29
73673;BMP280;61972;19.480;-99.240;2023-06-10T03:54:06;77829.06;;;34.29
73673;BMP280;61972;19.480;-99.240;2023-06-10T03:56:32;77832.19;;;34.27
73673;BMP280;61972;19.480;-99.240;2023-06-10T03:58:58;77833.28;;;34.28
73673;BMP280;61972;19.480;-99.240;2023-06-10T04:01:26;77837.69;;;34.32
73673;BMP280;61972;19.480;-99.240;2023-06-10T04:03:53;77837.22;;;34.34
73673;BMP280;61972;19.480;-99.240;2023-06-10T04:06:20;77845.84;;;34.37
73673;BMP280;61972;19.480;-99.240;2023-06-10T04:09:04;77850.69;;;34.39
73673;BMP280;61972;19.480;-99.240;2023-06-10T04:11:39;77845.66;;;34.47
73673;BMP280;61972;19.480;-99.240;2023-06-10T04:14:05;77854.91;;;34.53
73673;BMP280;61972;19.480;-99.240;2023-06-10T04:16:31;77858.22;;;34.56
73673;BMP280;61972;19.480;-99.240;2023-06-10T04:18:58;77860.06;;;34.62
73673;BMP280;61972;19.480;-99.240;2023-06-10T04:21:24;77865.56;;;34.68
73673;BMP280;61972;19.480;-99.240;2023-06-10T04:23:50;77854.50;;;34.70
73673;BMP280;61972;19.480;-99.240;2023-06-10T04:26:16;77855.59;;;34.71
73673;BMP280;61972;19.480;-99.240;2023-06-10T04:28:45;77855.59;;;34.71
73673;BMP280;61972;19.480;-99.240;2023-06-10T04:31:15;77847.00;;;34.68
73673;BMP280;61972;19.480;-99.240;2023-06-10T04:33:41;77846.78;;;34.62
73673;BMP280;61972;19.480;-99.240;2023-06-10T04:36:07;77853.47;;;34.56
73673;BMP280;61972;19.480;-99.240;2023-06-10T04:38:33;77854.28;;;34.50
73673;BMP280;61972;19.480;-99.240;2023-06-10T04:41:00;77857.28;;;34.45
73673;BMP280;61972;19.480;-99.240;2023-06-10T04:43:26;77857.53;;;34.38
73673;BMP280;61972;19.480;-99.240;2023-06-10T04:45:54;77856.25;;;34.32
73673;BMP280;61972;19.480;-99.240;2023-06-10T04:48:21;77849.63;;;34.25
73673;BMP280;61972;19.480;-99.240;2023-06-10T04:50:49;77853.09;;;34.19
73673;BMP280;61972;19.480;-99.240;2023-06-10T04:53:16;77849.72;;;34.13
73673;BMP280;61972;19.480;-99.240;2023-06-10T04:55:42;77847.28;;;34.06
73673;BMP280;61972;19.480;-99.240;2023-06-10T04:58:09;77852.41;;;34.01
73673;BMP280;61972;19.480;-99.240;2023-06-10T05:00:35;77854.75;;;33.93
73673;BMP280;61972;19.480;-99.240;2023-06-10T05:03:02;77844.94;;;33.86
73673;BMP280;61972;19.480;-99.240;2023-06-10T05:05:28;77842.09;;;33.81
73673;BMP280;61972;19.480;-99.240;2023-06-10T05:07:54;77849.41;;;33.78
73673;BMP280;61972;19.480;-99.240;2023-06-10T05:10:20;77842.44;;;33.77
73673;BMP280;61972;19.480;-99.240;2023-06-10T05:12:46;77846.28;;;33.80
73673;BMP280;61972;19.480;-99.240;2023-06-10T05:15:12;77848.47;;;33.82
73673;BMP280;61972;19.480;-99.240;2023-06-10T05:17:38;77849.03;;;33.83
73673;BMP280;61972;19.480;-99.240;2023-06-10T05:20:05;77849.59;;;33.83
73673;BMP280;61972;19.480;-99.240;2023-06-10T05:22:32;77851.59;;;33.80
73673;BMP280;61972;19.480;-99.240;2023-06-10T05:24:58;77852.03;;;33.78
73673;BMP280;61972;19.480;-99.240;2023-06-10T05:27:24;77849.75;;;33.74
73673;BMP280;61972;19.480;-99.240;2023-06-10T05:29:54;77846.78;;;33.66
73673;BMP280;61972;19.480;-99.240;2023-06-10T05:32:20;77847.66;;;33.62
73673;BMP280;61972;19.480;-99.240;2023-06-10T05:34:46;77847.44;;;33.57
73673;BMP280;61972;19.480;-99.240;2023-06-10T05:37:12;77844.59;;;33.52
73673;BMP280;61972;19.480;-99.240;2023-06-10T05:39:39;77849.16;;;33.46
73673;BMP280;61972;19.480;-99.240;2023-06-10T05:42:06;77847.38;;;33.42
73673;BMP280;61972;19.480;-99.240;2023-06-10T05:44:33;77845.63;;;33.38
73673;BMP280;61972;19.480;-99.240;2023-06-10T05:46:59;77832.16;;;33.33
73673;BMP280;61972;19.480;-99.240;2023-06-10T05:49:26;77839.34;;;33.27
73673;BMP280;61972;19.480;-99.240;2023-06-10T05:51:52;77832.28;;;33.23
73673;BMP280;61972;19.480;-99.240;2023-06-10T05:54:19;77827.91;;;33.19
73673;BMP280;61972;19.480;-99.240;2023-06-10T05:56:45;77829.88;;;33.16
73673;BMP280;61972;19.480;-99.240;2023-06-10T05:59:11;77827.03;;;33.11
73673;BMP280;61972;19.480;-99.240;2023-06-10T06:01:37;77819.94;;;33.06
73673;BMP280;61972;19.480;-99.240;2023-06-10T06:04:03;77817.09;;;33.01
73673;BMP280;61972;19.480;-99.240;2023-06-10T06:06:29;77811.69;;;32.99
73673;BMP280;61972;19.480;-99.240;2023-06-10T06:08:55;77803.66;;;32.96
73673;BMP280;61972;19.480;-99.240;2023-06-10T06:11:21;77804.00;;;32.92
73673;BMP280;61972;19.480;-99.240;2023-06-10T06:13:48;77809.59;;;32.87
73673;BMP280;61972;19.480;-99.240;2023-06-10T06:16:14;77800.13;;;32.88
73673;BMP280;61972;19.480;-99.240;2023-06-10T06:18:40;77800.56;;;32.86
73673;BMP280;61972;19.480;-99.240;2023-06-10T06:21:07;77799.56;;;32.87
73673;BMP280;61972;19.480;-99.240;2023-06-10T06:23:33;77794.38;;;32.90
73673;BMP280;61972;19.480;-99.240;2023-06-10T06:25:59;77801.25;;;32.89
73673;BMP280;61972;19.480;-99.240;2023-06-10T06:28:25;77793.72;;;32.87
73673;BMP280;61972;19.480;-99.240;2023-06-10T06:30:55;77788.78;;;32.82
73673;BMP280;61972;19.480;-99.240;2023-06-10T06:33:22;77800.44;;;32.83
73673;BMP280;61972;19.480;-99.240;2023-06-10T06:35:48;77790.66;;;32.89
73673;BMP280;61972;19.480;-99.240;2023-06-10T06:38:14;77791.41;;;32.95
73673;BMP280;61972;19.480;-99.240;2023-06-10T06:40:40;77781.03;;;33.00
73673;BMP280;61972;19.480;-99.240;2023-06-10T06:43:06;77785.97;;;33.04
73673;BMP280;61972;19.480;-99.240;2023-06-10T06:45:32;77780.31;;;33.09
73673;BMP280;61972;19.480;-99.240;2023-06-10T06:47:59;77785.28;;;33.14
73673;BMP280;61972;19.480;-99.240;2023-06-10T06:50:25;77779.09;;;33.18
73673;BMP280;61972;19.480;-99.240;2023-06-10T06:52:51;77775.56;;;33.22
73673;BMP280;61972;19.480;-99.240;2023-06-10T06:55:17;77773.56;;;33.25
73673;BMP280;61972;19.480;-99.240;2023-06-10T06:57:44;77771.03;;;33.27
73673;BMP280;61972;19.480;-99.240;2023-06-10T07:00:10;77761.63;;;33.31
73673;BMP280;61972;19.480;-99.240;2023-06-10T07:02:36;77767.16;;;33.36
73673;BMP280;61972;19.480;-99.240;2023-06-10T07:05:05;77764.03;;;33.38
73673;BMP280;61972;19.480;-99.240;2023-06-10T07:07:32;77764.69;;;33.41
73673;BMP280;61972;19.480;-99.240;2023-06-10T07:09:58;77759.50;;;33.44
73673;BMP280;61972;19.480;-99.240;2023-06-10T07:12:25;77766.44;;;33.45
73673;BMP280;61972;19.480;-99.240;2023-06-10T07:14:51;77764.44;;;33.49
73673;BMP280;61972;19.480;-99.240;2023-06-10T07:17:17;77766.66;;;33.51
73673;BMP280;61972;19.480;-99.240;2023-06-10T07:19:44;77761.38;;;33.51
73673;BMP280;61972;19.480;-99.240;2023-06-10T07:22:11;77747.66;;;33.53
73673;BMP280;61972;19.480;-99.240;2023-06-10T07:24:37;77747.66;;;33.53
73673;BMP280;61972;19.480;-99.240;2023-06-10T07:27:03;77747.22;;;33.55
73673;BMP280;61972;19.480;-99.240;2023-06-10T07:29:29;77747.75;;;33.55
73673;BMP280;61972;19.480;-99.240;2023-06-10T07:31:55;77743.00;;;33.56
73673;BMP280;61972;19.480;-99.240;2023-06-10T07:34:21;77742.53;;;33.58
73673;BMP280;61972;19.480;-99.240;2023-06-10T07:36:47;77743.63;;;33.59
73673;BMP280;61972;19.480;-99.240;2023-06-10T07:39:13;77733.59;;;33.59
73673;BMP280;61972;19.480;-99.240;2023-06-10T07:41:40;77738.44;;;33.61
73673;BMP280;61972;19.480;-99.240;2023-06-10T07:44:06;77733.16;;;33.61
73673;BMP280;61972;19.480;-99.240;2023-06-10T07:46:32;77729.94;;;33.61
73673;BMP280;61972;19.480;-99.240;2023-06-10T07:48:58;77726.84;;;33.63
73673;BMP280;61972;19.480;-99.240;2023-06-10T07:51:24;77727.97;;;33.64
73673;BMP280;61972;19.480;-99.240;2023-06-10T07:53:50;77724.75;;;33.63
73673;BMP280;61972;19.480;-99.240;2023-06-10T07:56:16;77723.09;;;33.62
73673;BMP280;61972;19.480;-99.240;2023-06-10T07:58:42;77713.50;;;33.60
73673;BMP280;61972;19.480;-99.240;2023-06-10T08:01:08;77714.06;;;33.61
73673;BMP280;61972;19.480;-99.240;2023-06-10T08:03:35;77713.59;;;33.63
73673;BMP280;61972;19.480;-99.240;2023-06-10T08:06:01;77711.50;;;33.63
73673;BMP280;61972;19.480;-99.240;2023-06-10T08:08:27;77713.13;;;33.65
73673;BMP280;61972;19.480;-99.240;2023-06-10T08:10:53;77708.94;;;33.66
73673;BMP280;61972;19.480;-99.240;2023-06-10T08:13:19;77704.75;;;33.67
73673;BMP280;61972;19.480;-99.240;2023-06-10T08:15:47;77703.19;;;33.68
73673;BMP280;61972;19.480;-99.240;2023-06-10T08:18:17;77704.81;;;33.70
73673;BMP280;61972;19.480;-99.240;2023-06-10T08:20:44;77699.53;;;33.70
73673;BMP280;61972;19.480;-99.240;2023-06-10T08:23:10;77692.13;;;33.70
73673;BMP280;61972;19.480;-99.240;2023-06-10T08:25:36;77694.78;;;33.70
73673;BMP280;61972;19.480;-99.240;2023-06-10T08:28:02;77691.13;;;33.72
73673;BMP280;61972;19.480;-99.240;2023-06-10T08:30:28;77687.94;;;33.71
73673;BMP280;61972;19.480;-99.240;2023-06-10T08:32:54;77689.00;;;33.72
73673;BMP280;61972;19.480;-99.240;2023-06-10T08:35:21;77678.41;;;33.72
73673;BMP280;61972;19.480;-99.240;2023-06-10T08:37:47;77682.63;;;33.71
73673;BMP280;61972;19.480;-99.240;2023-06-10T08:40:13;77679.97;;;33.71
73673;BMP280;61972;19.480;-99.240;2023-06-10T08:42:44;77677.31;;;33.71
73673;BMP280;61972;19.480;-99.240;2023-06-10T08:45:17;77687.94;;;33.71
73673;BMP280;61972;19.480;-99.240;2023-06-10T08:47:46;77685.28;;;33.71
73673;BMP280;61972;19.480;-99.240;2023-06-10T08:50:17;77683.53;;;33.67
73673;BMP280;61972;19.480;-99.240;2023-06-10T08:52:47;77686.63;;;33.65
73673;BMP280;61972;19.480;-99.240;2023-06-10T08:55:35;77684.44;;;33.63
73673;BMP280;61972;19.480;-99.240;2023-06-10T08:58:02;77683.34;;;33.62
73673;BMP280;61972;19.480;-99.240;2023-06-10T09:00:29;77682.16;;;33.58
73673;BMP280;61972;19.480;-99.240;2023-06-10T09:02:57;77683.13;;;33.57
73673;BMP280;61972;19.480;-99.240;2023-06-10T09:05:23;77685.78;;;33.57
73673;BMP280;61972;19.480;-99.240;2023-06-10T09:07:51;77687.16;;;33.51
73673;BMP280;61972;19.480;-99.240;2023-06-10T09:10:18;77685.47;;;33.34
73673;BMP280;61972;19.480;-99.240;2023-06-10T09:12:44;77679.13;;;33.21
73673;BMP280;61972;19.480;-99.240;2023-06-10T09:15:10;77670.78;;;33.11
73673;BMP280;61972;19.480;-99.240;2023-06-10T09:17:38;77678.31;;;33.00
73673;BMP280;61972;19.480;-99.240;2023-06-10T09:20:10;77671.06;;;32.91
73673;BMP280;61972;19.480;-99.240;2023-06-10T09:22:36;77673.84;;;32.81
73673;BMP280;61972;19.480;-99.240;2023-06-10T09:25:08;77672.97;;;32.73
73673;BMP280;61972;19.480;-99.240;2023-06-10T09:27:50;77677.31;;;32.62
73673;BMP280;61972;19.480;-99.240;2023-06-10T09:30:27;77672.25;;;32.55
73673;BMP280;61972;19.480;-99.240;2023-06-10T09:32:58;77674.47;;;32.45
73673;BMP280;61972;19.480;-99.240;2023-06-10T09:35:25;77669.28;;;32.35
73673;BMP280;61972;19.480;-99.240;2023-06-10T09:37:59;77673.59;;;32.24
73673;BMP280;61972;19.480;-99.240;2023-06-10T09:40:26;77676.91;;;32.15
73673;BMP280;61972;19.480;-99.240;2023-06-10T09:42:58;77679.78;;;32.08
73673;BMP280;61972;19.480;-99.240;2023-06-10T09:45:29;77675.06;;;31.96
73673;BMP280;61972;19.480;-99.240;2023-06-10T09:47:57;77675.81;;;31.89
73673;BMP280;61972;19.480;-99.240;2023-06-10T09:50:23;77684.41;;;31.80
73673;BMP280;61972;19.480;-99.240;2023-06-10T09:52:50;77680.84;;;31.72
73673;BMP280;61972;19.480;-99.240;2023-06-10T09:55:17;77688.47;;;31.64
73673;BMP280;61972;19.480;-99.240;2023-06-10T09:57:44;77684.38;;;31.56
73673;BMP280;61972;19.480;-99.240;2023-06-10T10:00:14;77692.50;;;31.48
73673;BMP280;61972;19.480;-99.240;2023-06-10T10:02:49;77695.34;;;31.41
73673;BMP280;61972;19.480;-99.240;2023-06-10T10:05:17;77695.53;;;31.34
73673;BMP280;61972;19.480;-99.240;2023-06-10T10:07:44;77690.47;;;31.27
73673;BMP280;61972;19.480;-99.240;2023-06-10T10:10:15;77686.06;;;31.23
73673;BMP280;61972;19.480;-99.240;2023-06-10T10:12:42;77696.38;;;31.18
73673;BMP280;61972;19.480;-99.240;2023-06-10T10:15:10;77697.13;;;31.11
73673;BMP280;61972;19.480;-99.240;2023-06-10T10:18:12;77699.41;;;31.03
73673;BMP280;61972;19.480;-99.240;2023-06-10T10:20:50;77699.16;;;30.98
73673;BMP280;61972;19.480;-99.240;2023-06-10T10:23:32;77695.19;;;30.92
73673;BMP280;61972;19.480;-99.240;2023-06-10T10:26:03;77697.56;;;30.87
73673;BMP280;61972;19.480;-99.240;2023-06-10T10:28:40;77697.88;;;30.82
73673;BMP280;61972;19.480;-99.240;2023-06-10T10:31:09;77699.72;;;30.77
73673;BMP280;61972;19.480;-99.240;2023-06-10T10:36:12;77710.88;;;30.67
73673;BMP280;61972;19.480;-99.240;2023-06-10T10:38:39;77707.59;;;30.64
73673;BMP280;61972;19.480;-99.240;2023-06-10T10:41:05;77711.19;;;30.63
73673;BMP280;61972;19.480;-99.240;2023-06-10T10:43:32;77712.59;;;30.59
73673;BMP280;61972;19.480;-99.240;2023-06-10T10:46:00;77715.00;;;30.54
73673;BMP280;61972;19.480;-99.240;2023-06-10T10:48:31;77717.94;;;30.49
73673;BMP280;61972;19.480;-99.240;2023-06-10T10:50:59;77725.16;;;30.46
73673;BMP280;61972;19.480;-99.240;2023-06-10T10:53:25;77721.31;;;30.43
73673;BMP280;61972;19.480;-99.240;2023-06-10T10:56:07;77721.06;;;30.38
73673;BMP280;61972;19.480;-99.240;2023-06-10T10:58:33;77723.00;;;30.34
73673;BMP280;61972;19.480;-99.240;2023-06-10T11:01:00;77719.69;;;30.31
73673;BMP280;61972;19.480;-99.240;2023-06-10T11:03:45;77726.91;;;30.28
73673;BMP280;61972;19.480;-99.240;2023-06-10T11:06:16;77734.16;;;30.25
73673;BMP280;61972;19.480;-99.240;2023-06-10T11:11:24;77732.38;;;30.21
73673;BMP280;61972;19.480;-99.240;2023-06-10T11:16:40;77738.91;;;30.15
73673;BMP280;61972;19.480;-99.240;2023-06-10T11:19:07;77734.06;;;30.13
73673;BMP280;61972;19.480;-99.240;2023-06-10T11:24:21;77745.88;;;30.07
73673;BMP280;61972;19.480;-99.240;2023-06-10T11:26:47;77748.41;;;30.04
73673;BMP280;61972;19.480;-99.240;2023-06-10T11:29:14;77745.63;;;30.02
73673;BMP280;61972;19.480;-99.240;2023-06-10T11:31:43;77749.22;;;30.00
73673;BMP280;61972;19.480;-99.240;2023-06-10T11:34:10;77747.97;;;29.96
73673;BMP280;61972;19.480;-99.240;2023-06-10T11:36:39;77753.69;;;29.94
73673;BMP280;61972;19.480;-99.240;2023-06-10T11:39:10;77748.84;;;29.92
73673;BMP280;61972;19.480;-99.240;2023-06-10T11:41:38;77757.16;;;29.90
73673;BMP280;61972;19.480;-99.240;2023-06-10T11:44:12;77750.13;;;29.86
73673;BMP280;61972;19.480;-99.240;2023-06-10T11:46:40;77753.16;;;29.84
73673;BMP280;61972;19.480;-99.240;2023-06-10T11:49:08;77749.81;;;29.81
73673;BMP280;61972;19.480;-99.240;2023-06-10T11:51:39;77750.25;;;29.79
73673;BMP280;61972;19.480;-99.240;2023-06-10T11:54:08;77753.31;;;29.77
73673;BMP280;61972;19.480;-99.240;2023-06-10T11:56:34;77756.22;;;29.72
73673;BMP280;61972;19.480;-99.240;2023-06-10T11:59:05;77760.41;;;29.71
73673;BMP280;61972;19.480;-99.240;2023-06-10T12:01:37;77760.28;;;29.69
73673;BMP280;61972;19.480;-99.240;2023-06-10T12:04:09;77758.03;;;29.67
73673;BMP280;61972;19.480;-99.240;2023-06-10T12:06:55;77769.41;;;29.63
73673;BMP280;61972;19.480;-99.240;2023-06-10T12:09:26;77780.91;;;29.61
73673;BMP280;61972;19.480;-99.240;2023-06-10T12:12:01;77782.88;;;29.58
73673;BMP280;61972;19.480;-99.240;2023-06-10T12:14:49;77785.38;;;29.55
73673;BMP280;61972;19.480;-99.240;2023-06-10T12:17:36;77793.69;;;29.53
73673;BMP280;61972;19.480;-99.240;2023-06-10T12:20:05;77796.72;;;29.51
73673;BMP280;61972;19.480;-99.240;2023-06-10T12:22:39;77801.47;;;29.51
73673;BMP280;61972;19.480;-99.240;2023-06-10T12:25:06;77814.47;;;29.48
73673;BMP280;61972;19.480;-99.240;2023-06-10T12:27:33;77810.19;;;29.47
73673;BMP280;61972;19.480;-99.240;2023-06-10T12:30:02;77805.34;;;29.45
73673;BMP280;61972;19.480;-99.240;2023-06-10T12:32:43;77803.66;;;29.43
73673;BMP280;61972;19.480;-99.240;2023-06-10T12:35:11;77812.00;;;29.41
73673;BMP280;61972;19.480;-99.240;2023-06-10T12:37:39;77804.50;;;29.39
73673;BMP280;61972;19.480;-99.240;2023-06-10T12:40:06;77813.38;;;29.37
73673;BMP280;61972;19.480;-99.240;2023-06-10T12:42:35;77813.91;;;29.38
73673;BMP280;61972;19.480;-99.240;2023-06-10T12:45:03;77816.97;;;29.36
73673;BMP280;61972;19.480;-99.240;2023-06-10T12:47:34;77815.31;;;29.34
73673;BMP280;61972;19.480;-99.240;2023-06-10T12:50:07;77815.84;;;29.35
73673;BMP280;61972;19.480;-99.240;2023-06-10T12:52:34;77812.53;;;29.32
73673;BMP280;61972;19.480;-99.240;2023-06-10T12:55:00;77812.53;;;29.32
73673;BMP280;61972;19.480;-99.240;2023-06-10T12:57:26;77811.44;;;29.31
73673;BMP280;61972;19.480;-99.240;2023-06-10T12:59:53;77820.84;;;29.30
73673;BMP280;61972;19.480;-99.240;2023-06-10T13:02:19;77822.38;;;29.29
73673;BMP280;61972;19.480;-99.240;2023-06-10T13:04:46;77818.63;;;29.28
73673;BMP280;61972;19.480;-99.240;2023-06-10T13:07:13;77822.78;;;29.27
73673;BMP280;61972;19.480;-99.240;2023-06-10T13:09:39;77816.97;;;29.26
73673;BMP280;61972;19.480;-99.240;2023-06-10T13:12:05;77819.03;;;29.26
73673;BMP280;61972;19.480;-99.240;2023-06-10T13:14:32;77820.56;;;29.25
73673;BMP280;61972;19.480;-99.240;2023-06-10T13:16:58;77827.34;;;29.24
73673;BMP280;61972;19.480;-99.240;2023-06-10T13:19:24;77834.13;;;29.23
73673;BMP280;61972;19.480;-99.240;2023-06-10T13:21:51;77830.97;;;29.22
73673;BMP280;61972;19.480;-99.240;2023-06-10T13:24:18;77835.25;;;29.24
73673;BMP280;61972;19.480;-99.240;2023-06-10T13:26:45;77829.56;;;29.26
73673;BMP280;61972;19.480;-99.240;2023-06-10T13:29:11;77838.59;;;29.27
73673;BMP280;61972;19.480;-99.240;2023-06-10T13:31:40;77834.97;;;29.28
73673;BMP280;61972;19.480;-99.240;2023-06-10T13:34:06;77841.91;;;29.30
73673;BMP280;61972;19.480;-99.240;2023-06-10T13:36:32;77848.28;;;29.31
73673;BMP280;61972;19.480;-99.240;2023-06-10T13:38:59;77847.19;;;29.30
73673;BMP280;61972;19.480;-99.240;2023-06-10T13:41:25;77845.66;;;29.31
73673;BMP280;61972;19.480;-99.240;2023-06-10T13:43:54;77848.28;;;29.31
73673;BMP280;61972;19.480;-99.240;2023-06-10T13:46:21;77850.34;;;29.30
73673;BMP280;61972;19.480;-99.240;2023-06-10T13:48:48;77848.28;;;29.31
73673;BMP280;61972;19.480;-99.240;2023-06-10T13:51:14;77846.19;;;29.31
73673;BMP280;61972;19.480;-99.240;2023-06-10T13:53:40;77850.34;;;29.30
73673;BMP280;61972;19.480;-99.240;2023-06-10T13:56:06;77848.69;;;29.29
73673;BMP280;61972;19.480;-99.240;2023-06-10T13:58:33;77841.91;;;29.30
73673;BMP280;61972;19.480;-99.240;2023-06-10T14:01:05;77851.88;;;29.29
73673;BMP280;61972;19.480;-99.240;2023-06-10T14:03:31;77844.94;;;29.28
73673;BMP280;61972;19.480;-99.240;2023-06-10T14:05:58;77853.38;;;29.28
73673;BMP280;61972;19.480;-99.240;2023-06-10T14:08:24;77850.22;;;29.28